Monday, July 28, 2014
12:28 UTC
  |  Log In   |  Register Free
Airport Search:

De Kalb County Airport
(KGWB)

De Kalb County Airport Diagram
No Airport Diagram Available

FAA data valid effective July 24, 2014 until September 18, 2014 (unless otherwise noted).

 
 
 
 
 
 
 
 
 
 
 
 
 
 

Current Aviation Weather for De Kalb County Airport (KGWB)

The most recent METAR observation for KGWB was updated at: 1135 UTC
METAR Summary (Translated METAR)
KGWB
281135Z AUTO 31008KT 10SM OVC035 17/14 A2989 RMK AO2
KFWA
(20.6 nm SW from KGWB)
281141Z 31007KT 10SM OVC031 17/15 A2990 RMK AO2 T01720150 $
TAF Summary (Translated TAF)
KFWA
(20.6 nm SW from KGWB)
281120Z 2812/2912 30010KT P6SM SCT015 BKN025 TEMPO 2812/2814 BKN015 FM281400 34012G20KT P6SM BKN025 FM281800 33014G22KT P6SM SCT035 FM290000 31004KT P6SM SKC
  Airport Weather Conditions for KGWB

 Current Weather at GWB
64° F
Partly Cloudy
Northwest winds at 10.4 mph
GWB NOAA Radar

Pressure: 29.89 in
Humidity: 78%
Wind: Northwest at 10.4 MPH (9 KT)
Dew Point: 57.2°F
Visibility: 10.00 mi


Airport Weather Forecast for KGWB

Translated METAR and TAF for KGWB
Translated METAR for KGWB (1222 UTC 28 July 2014)
found at http://aviationweather.gov/adds/metars/
 
METAR text: KGWB 281215Z AUTO 31007KT 10SM SCT016 SCT031 18/14 A2991 RMK AO2
Conditions at: KGWB (AUBURN DEKALB C , IN, US) observed 1215 UTC 28 July 2014
Temperature: 18.0°C (64°F)
Dewpoint: 14.0°C (57°F) [RH = 77%]
Pressure (altimeter): 29.91 inches Hg (1013.0 mb)
Winds: from the NW (310 degrees) at 8 MPH (7 knots; 3.6 m/s)
Visibility: 10 or more miles (16+ km)
Ceiling: at least 12,000 feet AGL
Clouds: scattered clouds at 1600 feet AGL
scattered clouds at 3100 feet AGL
Weather: automated observation with no human augmentation;
there may or may not be significant weather present at this time
Translated TAF for KGWB

There is no translated TAF available for this airport

Find All Airport Services Find A Hotel Find A Rental Car Find A Golf Course Find A Restaurant $100 Hamburger



FBO's on the Field
FBO Company Facility Photos Services Transportation Aviation Fuel Prices: Prices include tax
Catering Weather Repair Courtesy Rental Type 100LL JetA JetA+ MOGAS 8087
 
Century Aviation

This FBO has not yet been rated
FS:Shell
Last Updated: Jul-15
Login to update fuel prices
SS:
Contact Century AviationMore FBO Information
 
Add another FBO Facility Photos Catering Weather Repair Courtesy Rental Type 100LL JetA JetA+ MOGAS 8087
Services Transportation Aviation Fuel Prices: Prices include tax


GlobalAir.com Airport Resource Center model-print
model-print
model-print
model-print